createdAt,value
2017-06-27T00:02:21.443Z,100182.95
2017-06-27T00:04:50.511Z,100181.97
2017-06-27T00:07:19.579Z,100173.13
2017-06-27T00:09:48.884Z,100180.43
2017-06-27T00:12:17.952Z,100176.37
2017-06-27T00:14:47.241Z,100175.36
2017-06-27T00:17:16.400Z,100174.61
2017-06-27T00:19:45.439Z,100167.45
2017-06-27T00:22:14.553Z,100155.32
2017-06-27T00:24:43.620Z,100159.97
2017-06-27T00:27:12.741Z,100153.35
2017-06-27T00:29:41.784Z,100152.36
2017-06-27T00:32:10.897Z,100152.08
2017-06-27T00:34:39.958Z,100152.22
2017-06-27T00:37:09.044Z,100151.08
2017-06-27T00:39:38.114Z,100143.13
2017-06-27T00:42:07.181Z,100149.71
2017-06-27T00:44:36.222Z,100144.53
2017-06-27T00:47:05.275Z,100148.59
2017-06-27T00:49:34.407Z,100141.26
2017-06-27T00:52:03.445Z,100145.94
2017-06-27T00:54:32.523Z,100146.44
2017-06-27T00:57:01.560Z,100143.73
2017-06-27T00:59:30.779Z,100141.58
2017-06-27T01:01:59.834Z,100139.31
2017-06-27T01:04:28.900Z,100135.35
2017-06-27T01:06:58.003Z,100141.62
2017-06-27T01:09:27.052Z,100145.86
2017-06-27T01:11:56.111Z,100157.77
2017-06-27T01:14:25.157Z,100146.58
2017-06-27T01:16:54.234Z,100152.23
2017-06-27T01:19:23.279Z,100146.76
2017-06-27T01:21:52.352Z,100146.44
2017-06-27T01:24:21.420Z,100152.99
2017-06-27T01:26:50.500Z,100151.52
2017-06-27T01:29:19.575Z,100155.22
2017-06-27T01:31:48.655Z,100145.75
2017-06-27T01:34:17.742Z,100149.28
2017-06-27T01:36:46.785Z,100151.69
2017-06-27T01:39:15.884Z,100152.00
2017-06-27T01:41:44.932Z,100148.86
2017-06-27T01:44:14.060Z,100148.36
2017-06-27T01:46:43.111Z,100146.38
2017-06-27T01:49:12.194Z,100149.03
2017-06-27T01:51:41.282Z,100143.67
2017-06-27T01:54:10.398Z,100139.86
2017-06-27T01:56:39.481Z,100137.34
2017-06-27T01:59:08.529Z,100137.84
2017-06-27T02:01:37.592Z,100143.23
2017-06-27T02:04:06.658Z,100141.60
2017-06-27T02:06:35.721Z,100131.57
2017-06-27T02:09:04.831Z,100122.42
2017-06-27T02:11:33.883Z,100117.63
2017-06-27T02:14:02.972Z,100111.61
2017-06-27T02:16:32.048Z,100111.96
2017-06-27T02:19:01.100Z,100114.52
2017-06-27T02:21:30.150Z,100104.84
2017-06-27T02:23:59.220Z,100103.65
2017-06-27T02:26:28.335Z,100098.97
2017-06-27T02:28:57.385Z,100099.64
2017-06-27T02:31:26.456Z,100095.41
2017-06-27T02:33:55.505Z,100105.41
2017-06-27T02:36:24.584Z,100103.67
2017-06-27T02:38:53.645Z,100105.72
2017-06-27T02:41:22.697Z,100110.61
2017-06-27T02:43:51.826Z,100109.82
2017-06-27T02:46:20.851Z,100108.75
2017-06-27T02:48:49.932Z,100113.18
2017-06-27T02:51:19.002Z,100110.81
2017-06-27T02:53:48.069Z,100103.48
2017-06-27T02:56:17.120Z,100109.26
2017-06-27T02:58:46.216Z,100107.53
2017-06-27T03:01:15.275Z,100112.19
2017-06-27T03:03:45.132Z,100116.08
2017-06-27T03:06:14.187Z,100124.03
2017-06-27T03:08:43.240Z,100113.86
2017-06-27T03:11:12.313Z,100106.23
2017-06-27T03:13:41.405Z,100105.11
2017-06-27T03:16:10.667Z,100106.45
2017-06-27T03:18:39.755Z,100108.99
2017-06-27T03:21:09.574Z,100105.32
2017-06-27T03:23:39.387Z,100105.88
2017-06-27T03:26:08.494Z,100114.16
2017-06-27T03:28:37.796Z,100100.47
2017-06-27T03:31:06.873Z,100102.38
2017-06-27T03:33:36.697Z,100097.80
2017-06-27T03:36:05.753Z,100092.19
2017-06-27T03:38:34.797Z,100092.67
2017-06-27T03:41:03.865Z,100091.27
2017-06-27T03:43:32.916Z,100090.34
2017-06-27T03:46:02.020Z,100092.23
2017-06-27T03:48:31.067Z,100088.44
2017-06-27T03:51:00.158Z,100089.10
2017-06-27T03:53:29.992Z,100087.84
2017-06-27T03:55:59.038Z,100090.70
2017-06-27T03:58:28.868Z,100086.03
2017-06-27T04:00:57.934Z,100079.62
2017-06-27T04:03:27.011Z,100083.91
2017-06-27T04:05:56.080Z,100081.34
2017-06-27T04:08:25.237Z,100075.89
2017-06-27T04:10:55.075Z,100074.45
2017-06-27T04:13:24.424Z,100074.86
2017-06-27T04:15:53.502Z,100074.91
2017-06-27T04:18:22.568Z,100064.13
2017-06-27T04:20:51.619Z,100069.98
2017-06-27T04:23:20.684Z,100065.66
2017-06-27T04:25:49.825Z,100065.53
2017-06-27T04:28:18.867Z,100069.92
2017-06-27T04:30:47.900Z,100074.68
2017-06-27T04:33:16.991Z,100074.77
2017-06-27T04:35:46.044Z,100074.54
2017-06-27T04:38:15.138Z,100072.41
2017-06-27T04:40:44.192Z,100070.94
2017-06-27T04:43:14.036Z,100064.97
2017-06-27T04:45:43.225Z,100059.66
2017-06-27T04:48:12.301Z,100048.50
2017-06-27T04:50:41.334Z,100051.81
2017-06-27T04:53:10.435Z,100052.47
2017-06-27T04:55:39.773Z,100049.03
2017-06-27T04:58:08.912Z,100049.17
2017-06-27T05:00:38.749Z,100049.74
2017-06-27T05:03:08.021Z,100040.79
2017-06-27T05:05:37.088Z,100042.52
2017-06-27T05:08:06.159Z,100029.30
2017-06-27T05:10:35.195Z,100034.25
2017-06-27T05:13:04.283Z,100032.78
2017-06-27T05:15:33.336Z,100033.33
2017-06-27T05:18:02.432Z,100035.55
2017-06-27T05:20:31.448Z,100035.41
2017-06-27T05:23:00.509Z,100033.91
2017-06-27T05:25:29.607Z,100031.48
2017-06-27T05:27:58.662Z,100025.84
2017-06-27T05:30:28.495Z,100028.43
2017-06-27T05:32:57.576Z,100026.81
2017-06-27T05:35:26.641Z,100027.92
2017-06-27T05:37:55.699Z,100036.64
2017-06-27T05:40:24.782Z,100031.67
2017-06-27T05:42:54.571Z,100033.69
2017-06-27T05:45:23.681Z,100031.53
2017-06-27T05:47:52.732Z,100020.23
2017-06-27T05:50:21.800Z,100017.72
2017-06-27T05:52:50.836Z,100018.97
2017-06-27T05:55:20.674Z,100026.95
2017-06-27T05:57:49.744Z,100023.63
2017-06-27T06:00:19.580Z,100027.06
2017-06-27T06:02:48.658Z,100028.42
2017-06-27T06:05:18.516Z,100021.73
2017-06-27T06:07:47.572Z,100020.03
2017-06-27T06:10:17.550Z,100022.14
2017-06-27T06:12:46.606Z,100026.28
2017-06-27T06:15:15.703Z,100024.25
2017-06-27T06:17:44.786Z,100023.16
2017-06-27T06:20:14.620Z,100023.81
2017-06-27T06:22:43.668Z,100014.43
2017-06-27T06:25:13.513Z,100011.31
2017-06-27T06:27:42.607Z,100004.91
2017-06-27T06:30:12.469Z,100010.45
2017-06-27T06:32:41.524Z,100002.44
2017-06-27T06:35:10.584Z,100005.21
2017-06-27T06:37:40.389Z,99996.10
2017-06-27T06:40:09.487Z,99996.47
2017-06-27T06:42:38.531Z,99998.98
2017-06-27T06:45:07.624Z,100002.27
2017-06-27T06:47:36.659Z,99999.31
2017-06-27T06:50:06.074Z,99993.59
2017-06-27T06:52:35.129Z,99992.72
2017-06-27T06:55:04.183Z,99991.30
2017-06-27T06:57:33.538Z,100002.22
2017-06-27T07:00:02.631Z,100007.34
2017-06-27T07:02:31.672Z,99999.13
2017-06-27T07:05:00.757Z,99999.61
2017-06-27T07:07:30.594Z,99995.98
2017-06-27T07:10:00.416Z,99998.45
2017-06-27T07:12:29.488Z,99985.61
2017-06-27T07:14:59.295Z,99989.62
2017-06-27T07:17:29.134Z,99985.98
2017-06-27T07:19:58.192Z,99985.75
2017-06-27T07:22:27.237Z,99981.19
2017-06-27T07:24:56.313Z,99977.13
2017-06-27T07:27:25.399Z,99980.69
2017-06-27T07:29:54.467Z,99989.38
2017-06-27T07:32:23.534Z,99988.95
2017-06-27T07:34:52.595Z,99992.52
2017-06-27T07:37:21.680Z,99988.87
2017-06-27T07:39:51.575Z,99994.81
2017-06-27T07:42:21.395Z,99992.48
2017-06-27T07:44:51.207Z,99989.25
2017-06-27T07:47:21.048Z,99986.91
2017-06-27T07:49:50.172Z,99991.95
2017-06-27T07:52:19.212Z,99990.78
2017-06-27T07:54:49.061Z,99993.55
2017-06-27T07:57:18.199Z,99982.44
2017-06-27T07:59:47.272Z,99989.98
2017-06-27T08:02:16.723Z,99981.50
2017-06-27T08:04:46.544Z,99980.52
2017-06-27T08:07:16.444Z,99980.69
2017-06-27T08:09:46.293Z,99973.31
2017-06-27T08:12:15.357Z,99971.20
2017-06-27T08:14:45.150Z,99982.47
2017-06-27T08:17:14.246Z,99974.62
2017-06-27T08:19:43.652Z,99971.95
2017-06-27T08:22:12.815Z,99974.59
2017-06-27T08:24:41.872Z,99973.39
2017-06-27T08:27:10.951Z,99977.87
2017-06-27T08:29:40.793Z,99980.66
2017-06-27T08:32:09.852Z,99970.14
2017-06-27T08:34:39.078Z,99970.05
2017-06-27T08:37:08.154Z,99963.30
2017-06-27T08:39:37.214Z,99971.44
2017-06-27T08:42:06.279Z,99960.85
2017-06-27T08:44:35.344Z,99961.05
2017-06-27T08:47:05.276Z,99963.33
2017-06-27T08:49:35.116Z,99954.23
2017-06-27T08:52:04.436Z,99953.64
2017-06-27T08:54:33.468Z,99951.61
2017-06-27T08:57:03.237Z,99948.95
2017-06-27T08:59:32.289Z,99945.05
2017-06-27T09:02:01.369Z,99940.48
2017-06-27T09:04:31.200Z,99936.15
2017-06-27T09:07:00.249Z,99935.39
2017-06-27T09:09:29.332Z,99938.17
2017-06-27T09:11:58.469Z,99938.13
2017-06-27T09:14:28.315Z,99931.50
2017-06-27T09:16:57.358Z,99928.82
2017-06-27T09:19:26.440Z,99935.05
2017-06-27T09:21:55.529Z,99933.55
2017-06-27T09:24:24.587Z,99938.30
2017-06-27T09:26:53.652Z,99936.69
2017-06-27T09:29:23.533Z,99931.64
2017-06-27T09:31:52.578Z,99931.11
2017-06-27T09:34:21.635Z,99929.62
2017-06-27T09:36:50.714Z,99925.54
2017-06-27T09:39:19.800Z,99919.50
2017-06-27T09:41:49.225Z,99920.49
2017-06-27T09:44:19.159Z,99920.34
2017-06-27T09:46:49.019Z,99917.48
2017-06-27T09:49:18.082Z,99923.66
2017-06-27T09:51:47.128Z,99914.85
2017-06-27T09:54:16.251Z,99908.01
2017-06-27T09:56:45.302Z,99907.28
2017-06-27T09:59:14.345Z,99909.91
2017-06-27T10:01:44.185Z,99905.01
2017-06-27T10:04:14.006Z,99899.66
2017-06-27T10:06:43.060Z,99905.34
2017-06-27T10:09:12.112Z,99899.19
2017-06-27T10:11:41.180Z,99908.39
2017-06-27T10:14:10.517Z,99901.94
2017-06-27T10:16:39.593Z,99898.27
2017-06-27T10:19:08.662Z,99893.98
2017-06-27T10:21:38.043Z,99891.30
2017-06-27T10:24:07.076Z,99879.11
2017-06-27T10:26:36.126Z,99877.73
2017-06-27T10:29:05.215Z,99878.13
2017-06-27T10:31:34.248Z,99878.50
2017-06-27T10:34:03.292Z,99876.95
2017-06-27T10:36:32.679Z,99872.24
2017-06-27T10:39:01.775Z,99871.44
2017-06-27T10:41:30.818Z,99864.58
2017-06-27T10:44:00.647Z,99871.48
2017-06-27T10:46:29.773Z,99870.11
2017-06-27T10:48:58.836Z,99868.34
2017-06-27T10:51:27.893Z,99876.63
2017-06-27T10:53:56.982Z,99873.88
2017-06-27T10:56:26.044Z,99872.11
2017-06-27T10:58:55.135Z,99869.53
2017-06-27T11:01:24.178Z,99875.23
2017-06-27T11:03:53.257Z,99879.39
2017-06-27T11:06:22.319Z,99869.71
2017-06-27T11:08:51.375Z,99867.74
2017-06-27T11:11:21.229Z,99866.38
2017-06-27T11:13:50.353Z,99865.37
2017-06-27T11:16:19.403Z,99863.40
2017-06-27T11:18:48.443Z,99861.23
2017-06-27T11:21:17.519Z,99859.06
2017-06-27T11:23:47.556Z,99858.89
2017-06-27T11:26:16.666Z,99855.55
2017-06-27T11:28:45.745Z,99845.30
2017-06-27T11:31:14.873Z,99847.03
2017-06-27T11:33:43.931Z,99844.25
2017-06-27T11:36:13.923Z,99838.34
2017-06-27T11:38:42.976Z,99838.56
2017-06-27T11:41:12.850Z,99838.78
2017-06-27T11:43:41.950Z,99829.91
2017-06-27T11:46:11.025Z,99827.34
2017-06-27T11:48:40.081Z,99829.29
2017-06-27T11:51:09.942Z,99832.23
2017-06-27T11:53:39.497Z,99834.98
2017-06-27T11:56:08.530Z,99842.27
2017-06-27T11:58:37.616Z,99827.25
2017-06-27T12:01:24.313Z,99818.34
2017-06-27T12:06:59.814Z,99804.64
2017-06-27T12:09:30.673Z,99795.14
2017-06-27T12:11:59.718Z,99800.60
2017-06-27T12:14:28.808Z,99800.59
2017-06-27T12:16:57.888Z,99794.62
2017-06-27T12:19:27.715Z,99791.84
2017-06-27T12:21:57.553Z,99797.01
2017-06-27T12:24:26.613Z,99789.56
2017-06-27T12:26:56.787Z,99796.72
2017-06-27T12:29:25.919Z,99783.86
2017-06-27T12:31:55.739Z,99784.96
2017-06-27T12:34:25.591Z,99783.81
2017-06-27T12:36:54.678Z,99780.46
2017-06-27T12:39:23.767Z,99770.39
2017-06-27T12:41:53.573Z,99775.45
2017-06-27T12:44:22.665Z,99772.36
2017-06-27T12:46:52.476Z,99773.75
2017-06-27T12:49:22.290Z,99764.09
2017-06-27T12:51:51.732Z,99763.72
2017-06-27T12:54:20.786Z,99765.95
2017-06-27T12:56:50.625Z,99764.66
2017-06-27T12:59:19.962Z,99762.50
2017-06-27T13:01:49.037Z,99755.20
2017-06-27T13:04:18.144Z,99753.02
2017-06-27T13:06:47.188Z,99750.84
2017-06-27T13:09:16.275Z,99747.20
2017-06-27T13:11:45.354Z,99747.69
2017-06-27T13:14:14.746Z,99744.01
2017-06-27T13:16:43.801Z,99740.91
2017-06-27T13:19:12.910Z,99736.23
2017-06-27T13:21:41.991Z,99735.24
2017-06-27T13:24:11.128Z,99728.13
2017-06-27T13:26:40.202Z,99729.68
2017-06-27T13:29:09.249Z,99727.13
2017-06-27T13:31:38.299Z,99721.08
2017-06-27T13:34:07.394Z,99719.68
2017-06-27T13:36:36.495Z,99714.91
2017-06-27T13:39:05.550Z,99703.08
2017-06-27T13:41:34.622Z,99703.84
2017-06-27T13:44:04.902Z,99702.81
2017-06-27T13:46:33.956Z,99697.94
2017-06-27T13:49:03.027Z,99697.75
2017-06-27T13:51:32.877Z,99698.17
2017-06-27T13:54:01.940Z,99695.23
2017-06-27T13:56:31.794Z,99700.48
2017-06-27T13:59:00.869Z,99698.31
2017-06-27T14:01:29.920Z,99695.54
2017-06-27T14:03:59.004Z,99693.36
2017-06-27T14:06:28.060Z,99687.27
2017-06-27T14:08:57.152Z,99683.56
2017-06-27T14:11:26.243Z,99677.64
2017-06-27T14:13:55.324Z,99677.59
2017-06-27T14:16:24.392Z,99673.83
2017-06-27T14:18:53.440Z,99671.44
2017-06-27T14:21:22.681Z,99666.73
2017-06-27T14:23:51.845Z,99664.08
2017-06-27T14:26:20.938Z,99657.52
2017-06-27T14:28:50.000Z,99655.39
2017-06-27T14:31:19.089Z,99657.55
2017-06-27T14:33:50.052Z,99657.12
2017-06-27T14:36:19.884Z,99648.01
2017-06-27T14:38:48.963Z,99650.51
2017-06-27T14:41:18.028Z,99645.73
2017-06-27T14:43:47.880Z,99634.40
2017-06-27T14:46:16.978Z,99633.98
2017-06-27T14:48:46.021Z,99634.91
2017-06-27T14:51:15.434Z,99633.13
2017-06-27T14:53:45.268Z,99632.72
2017-06-27T14:56:15.102Z,99631.55
2017-06-27T14:58:44.148Z,99629.43
2017-06-27T15:01:14.011Z,99626.06
2017-06-27T15:03:43.073Z,99620.06
2017-06-27T15:06:12.149Z,99617.91
2017-06-27T15:08:41.253Z,99610.48
2017-06-27T15:11:11.068Z,99602.48
2017-06-27T15:13:41.282Z,99601.83
2017-06-27T15:16:10.365Z,99594.41
2017-06-27T15:18:39.460Z,99596.13
2017-06-27T15:21:08.549Z,99590.59
2017-06-27T15:23:37.738Z,99586.11
2017-06-27T15:26:06.821Z,99595.64
2017-06-27T15:28:35.876Z,99581.73
2017-06-27T15:31:05.121Z,99575.84
2017-06-27T15:33:34.244Z,99574.03
2017-06-27T15:36:03.302Z,99568.77
2017-06-27T15:38:32.371Z,99565.55
2017-06-27T15:41:01.461Z,99562.40
2017-06-27T15:43:31.268Z,99549.62
2017-06-27T15:46:01.130Z,99555.20
2017-06-27T15:48:30.207Z,99546.20
2017-06-27T15:50:59.276Z,99549.80
2017-06-27T15:53:28.354Z,99545.63
2017-06-27T15:55:58.221Z,99538.77
2017-06-27T15:58:27.309Z,99537.16
2017-06-27T16:00:56.384Z,99538.98
2017-06-27T16:03:25.848Z,99530.97
2017-06-27T16:05:54.900Z,99532.53
2017-06-27T16:08:25.538Z,99532.34
2017-06-27T16:10:55.432Z,99530.05
2017-06-27T16:13:24.505Z,99526.69
2017-06-27T16:15:54.973Z,99524.72
2017-06-27T16:18:24.128Z,99520.37
2017-06-27T16:20:53.273Z,99513.46
2017-06-27T16:23:22.545Z,99516.65
2017-06-27T16:25:51.622Z,99514.09
2017-06-27T16:28:21.431Z,99507.94
2017-06-27T16:30:51.303Z,99511.46
2017-06-27T16:33:20.339Z,99510.27
2017-06-27T16:35:50.193Z,99511.23
2017-06-27T16:38:19.260Z,99509.30
2017-06-27T16:40:48.393Z,99501.61
2017-06-27T16:43:17.665Z,99498.02
2017-06-27T16:45:46.753Z,99493.06
2017-06-27T16:48:16.624Z,99496.77
2017-06-27T16:50:45.713Z,99491.57
2017-06-27T16:53:14.864Z,99482.08
2017-06-27T16:55:44.112Z,99475.17
2017-06-27T16:58:13.360Z,99476.99
2017-06-27T17:00:42.465Z,99466.64
2017-06-27T17:03:12.291Z,99455.73
2017-06-27T17:05:41.378Z,99455.56
2017-06-27T17:08:10.504Z,99458.56
2017-06-27T17:10:39.583Z,99451.99
2017-06-27T17:13:08.865Z,99446.27
2017-06-27T17:15:38.199Z,99433.88
2017-06-27T17:18:07.312Z,99428.13
2017-06-27T17:20:36.704Z,99435.63
2017-06-27T17:23:05.796Z,99429.92
2017-06-27T17:25:34.888Z,99429.56
2017-06-27T17:28:03.976Z,99422.65
2017-06-27T17:30:33.036Z,99421.39
2017-06-27T17:33:02.175Z,99422.52
2017-06-27T17:35:31.230Z,99422.48
2017-06-27T17:38:00.305Z,99412.55
2017-06-27T17:40:30.279Z,99413.72
2017-06-27T17:43:00.439Z,99412.86
2017-06-27T17:45:30.264Z,99413.61
2017-06-27T17:47:59.361Z,99415.44
2017-06-27T17:50:29.218Z,99410.09
2017-06-27T17:52:58.347Z,99410.33
2017-06-27T17:55:27.445Z,99408.92
2017-06-27T17:57:57.300Z,99413.13
2017-06-27T18:00:26.384Z,99403.27
2017-06-27T18:02:55.509Z,99403.12
2017-06-27T18:05:24.759Z,99397.38
2017-06-27T18:07:54.222Z,99392.64
2017-06-27T18:10:24.177Z,99395.06
2017-06-27T18:12:54.329Z,99390.71
2017-06-27T18:15:23.416Z,99386.77
2017-06-27T18:17:52.498Z,99378.36
2017-06-27T18:20:22.335Z,99367.91
2017-06-27T18:22:51.399Z,99371.56
2017-06-27T18:25:20.482Z,99369.61
2017-06-27T18:27:50.320Z,99366.80
2017-06-27T18:30:19.431Z,99373.94
2017-06-27T18:32:48.513Z,99377.91
2017-06-27T18:35:17.629Z,99369.95
2017-06-27T18:37:46.722Z,99370.16
2017-06-27T18:40:15.850Z,99361.09
2017-06-27T18:42:44.904Z,99350.06
2017-06-27T18:45:14.028Z,99343.52
2017-06-27T18:47:43.068Z,99352.38
2017-06-27T18:50:13.089Z,99344.13
2017-06-27T18:52:43.014Z,99341.30
2017-06-27T18:55:12.879Z,99340.52
2017-06-27T18:57:42.619Z,99341.27
2017-06-27T19:00:12.788Z,99340.91
2017-06-27T19:02:42.344Z,99336.17
2017-06-27T19:05:11.434Z,99333.80
2017-06-27T19:07:41.390Z,99326.89
2017-06-27T19:10:11.600Z,99330.10
2017-06-27T19:12:41.873Z,99320.88
2017-06-27T19:15:12.055Z,99318.39
2017-06-27T19:17:42.307Z,99314.25
2017-06-27T19:20:11.874Z,99312.69
2017-06-27T19:22:41.345Z,99322.14
2017-06-27T19:25:10.788Z,99314.16
2017-06-27T19:27:40.284Z,99314.54
2017-06-27T19:30:09.684Z,99303.10
2017-06-27T19:32:39.211Z,99311.18
2017-06-27T19:35:08.818Z,99304.16
2017-06-27T19:37:38.020Z,99305.56
2017-06-27T19:40:07.185Z,99308.98
2017-06-27T19:42:36.650Z,99301.53
2017-06-27T19:45:06.243Z,99311.42
2017-06-27T19:47:35.704Z,99306.71
2017-06-27T19:50:06.113Z,99311.69
2017-06-27T19:52:35.538Z,99314.86
2017-06-27T19:55:05.439Z,99313.66
2017-06-27T19:57:34.845Z,99317.47
2017-06-27T20:00:04.292Z,99314.91
2017-06-27T20:02:33.841Z,99319.26
2017-06-27T20:05:03.406Z,99324.80
2017-06-27T20:07:32.868Z,99320.51
2017-06-27T20:10:02.261Z,99318.94
2017-06-27T20:12:31.690Z,99312.66
2017-06-27T20:15:01.098Z,99314.45
2017-06-27T20:17:30.461Z,99318.58
2017-06-27T20:20:00.045Z,99314.23
2017-06-27T20:22:29.490Z,99312.18
2017-06-27T20:24:58.708Z,99305.85
2017-06-27T20:27:27.830Z,99293.95
2017-06-27T20:29:57.194Z,99294.37
2017-06-27T20:32:26.349Z,99299.27
2017-06-27T20:34:55.714Z,99295.93
2017-06-27T20:37:25.153Z,99291.33
2017-06-27T20:39:54.527Z,99278.09
2017-06-27T20:42:23.908Z,99279.31
2017-06-27T20:44:53.062Z,99277.73
2017-06-27T20:47:22.364Z,99257.06
2017-06-27T20:49:51.536Z,99260.83
2017-06-27T20:52:20.611Z,99248.41
2017-06-27T20:54:49.704Z,99246.70
2017-06-27T20:57:18.792Z,99242.40
2017-06-27T20:59:47.871Z,99244.81
2017-06-27T21:02:17.254Z,99241.45
2017-06-27T21:04:46.311Z,99239.37
2017-06-27T21:07:15.467Z,99231.91
2017-06-27T21:09:44.512Z,99234.50
2017-06-27T21:12:13.584Z,99233.12
2017-06-27T21:14:42.659Z,99220.53
2017-06-27T21:17:11.772Z,99227.23
2017-06-27T21:19:40.846Z,99219.14
2017-06-27T21:22:09.915Z,99217.80
2017-06-27T21:24:39.792Z,99216.02
2017-06-27T21:27:08.881Z,99209.75
2017-06-27T21:29:37.912Z,99215.48
2017-06-27T21:32:07.017Z,99212.52
2017-06-27T21:34:36.857Z,99213.06
2017-06-27T21:37:06.249Z,99215.27
2017-06-27T21:39:36.256Z,99209.36
2017-06-27T21:42:06.091Z,99212.88
2017-06-27T21:44:35.426Z,99208.37
2017-06-27T21:47:04.636Z,99203.30
2017-06-27T21:49:33.742Z,99208.44
2017-06-27T21:52:02.811Z,99205.30
2017-06-27T21:54:31.928Z,99201.37
2017-06-27T21:57:01.042Z,99198.06
2017-06-27T21:59:30.108Z,99196.89
2017-06-27T22:01:59.175Z,99194.73
2017-06-27T22:04:28.541Z,99190.20
2017-06-27T22:06:57.596Z,99191.35
2017-06-27T22:09:26.719Z,99192.30
2017-06-27T22:11:55.787Z,99183.27
2017-06-27T22:14:24.846Z,99180.71
2017-06-27T22:16:54.696Z,99176.19
2017-06-27T22:19:23.751Z,99172.80
2017-06-27T22:21:54.173Z,99175.77
2017-06-27T22:24:26.212Z,99170.23
2017-06-27T22:26:56.065Z,99170.05
2017-06-27T22:29:25.131Z,99169.40
2017-06-27T22:31:55.015Z,99168.80
2017-06-27T22:34:24.109Z,99162.33
2017-06-27T22:36:53.151Z,99158.16
2017-06-27T22:39:22.271Z,99156.42
2017-06-27T22:41:51.314Z,99146.73
2017-06-27T22:44:20.377Z,99147.73
2017-06-27T22:46:49.456Z,99149.37
2017-06-27T22:49:18.533Z,99140.31
2017-06-27T22:51:47.613Z,99142.31
2017-06-27T22:54:17.657Z,99146.87
2017-06-27T22:56:46.752Z,99144.70
2017-06-27T22:59:15.885Z,99142.50
2017-06-27T23:01:45.034Z,99141.90
2017-06-27T23:04:14.093Z,99128.77
2017-06-27T23:06:43.973Z,99130.95
2017-06-27T23:09:13.045Z,99129.20
2017-06-27T23:11:42.113Z,99130.20
2017-06-27T23:14:11.968Z,99116.75
2017-06-27T23:16:41.037Z,99120.73
2017-06-27T23:19:10.121Z,99108.55
2017-06-27T23:21:39.984Z,99117.99
2017-06-27T23:24:09.075Z,99110.34
2017-06-27T23:26:38.148Z,99101.12
2017-06-27T23:29:07.236Z,99099.95
2017-06-27T23:31:37.049Z,99090.11
2017-06-27T23:34:06.112Z,99086.47
2017-06-27T23:36:35.975Z,99077.87
2017-06-27T23:39:05.099Z,99078.91
2017-06-27T23:41:34.165Z,99075.45
2017-06-27T23:44:03.324Z,99072.53
2017-06-27T23:46:33.165Z,99067.04
2017-06-27T23:49:02.634Z,99062.95
2017-06-27T23:51:31.692Z,99057.45
2017-06-27T23:54:00.780Z,99056.82
2017-06-27T23:56:29.854Z,99043.67
2017-06-27T23:58:58.952Z,99037.94
